createdAt,value
2018-05-16T00:00:04.982Z,93.64
2018-05-16T00:01:05.123Z,93.74
2018-05-16T00:02:05.204Z,93.26
2018-05-16T00:03:05.321Z,93.64
2018-05-16T00:04:05.428Z,92.92
2018-05-16T00:05:05.481Z,93.16
2018-05-16T00:06:05.597Z,93.30
2018-05-16T00:07:05.721Z,93.40
2018-05-16T00:08:05.822Z,93.50
2018-05-16T00:09:05.918Z,93.12
2018-05-16T00:10:06.021Z,93.12
2018-05-16T00:11:06.108Z,92.06
2018-05-16T00:12:06.262Z,91.44
2018-05-16T00:13:06.236Z,92.69
2018-05-16T00:14:06.391Z,92.21
2018-05-16T00:15:06.504Z,93.07
2018-05-16T00:16:06.784Z,93.45
2018-05-16T00:17:06.655Z,93.26
2018-05-16T00:18:06.765Z,92.78
2018-05-16T00:19:06.872Z,92.78
2018-05-16T00:20:06.984Z,92.78
2018-05-16T00:21:07.894Z,92.40
2018-05-16T00:22:07.175Z,92.40
2018-05-16T00:23:07.303Z,92.69
2018-05-16T00:24:07.773Z,92.11
2018-05-16T00:25:07.516Z,91.83
2018-05-16T00:26:07.651Z,91.73
2018-05-16T00:27:07.954Z,91.16
2018-05-16T00:28:07.871Z,92.02
2018-05-16T00:29:07.912Z,92.11
2018-05-16T00:30:08.020Z,92.83
2018-05-16T00:31:08.104Z,92.16
2018-05-16T00:32:08.088Z,92.54
2018-05-16T00:33:08.209Z,93.12
2018-05-16T00:34:08.502Z,93.98
2018-05-16T00:35:08.370Z,94.46
2018-05-16T00:36:08.467Z,93.98
2018-05-16T00:37:08.569Z,94.12
2018-05-16T00:38:08.851Z,93.60
2018-05-16T00:39:08.750Z,93.93
2018-05-16T00:40:08.918Z,94.84
2018-05-16T00:41:09.149Z,95.51
2018-05-16T00:42:09.197Z,95.41
2018-05-16T00:43:09.102Z,95.41
2018-05-16T00:44:09.193Z,95.22
2018-05-16T00:45:09.279Z,95.22
2018-05-16T00:46:09.368Z,94.17
2018-05-16T00:47:09.600Z,94.36
2018-05-16T00:48:09.943Z,94.07
2018-05-16T00:49:09.725Z,94.17
2018-05-16T00:50:09.941Z,94.46
2018-05-16T00:51:09.854Z,95.12
2018-05-16T00:52:10.054Z,94.74
2018-05-16T00:53:10.171Z,95.12
2018-05-16T00:54:10.297Z,94.65
2018-05-16T00:55:10.331Z,95.03
2018-05-16T00:56:10.423Z,94.17
2018-05-16T00:57:10.508Z,94.93
2018-05-16T00:58:10.613Z,94.65
2018-05-16T00:59:10.712Z,94.46
2018-05-16T01:00:10.861Z,94.84
2018-05-16T01:01:10.994Z,94.21
2018-05-16T01:02:11.091Z,94.17
2018-05-16T01:03:11.195Z,93.60
2018-05-16T01:04:11.396Z,93.07
2018-05-16T01:05:11.376Z,93.55
2018-05-16T01:06:11.475Z,93.84
2018-05-16T01:07:11.619Z,93.84
2018-05-16T01:08:11.656Z,94.02
2018-05-16T01:09:11.753Z,93.84
2018-05-16T01:10:11.867Z,93.45
2018-05-16T01:11:11.966Z,93.40
2018-05-16T01:12:12.075Z,94.07
2018-05-16T01:13:12.282Z,93.31
2018-05-16T01:14:12.341Z,93.79
2018-05-16T01:15:12.351Z,93.69
2018-05-16T01:16:12.393Z,93.88
2018-05-16T01:17:12.485Z,94.46
2018-05-16T01:18:12.609Z,94.17
2018-05-16T01:19:12.703Z,94.02
2018-05-16T01:20:12.813Z,93.45
2018-05-16T01:21:13.108Z,92.83
2018-05-16T01:22:12.995Z,92.93
2018-05-16T01:23:13.110Z,93.26
2018-05-16T01:24:13.204Z,93.26
2018-05-16T01:25:13.294Z,93.35
2018-05-16T01:26:13.451Z,93.16
2018-05-16T01:27:13.604Z,93.16
2018-05-16T01:28:13.721Z,93.07
2018-05-16T01:29:13.817Z,93.16
2018-05-16T01:30:13.934Z,92.78
2018-05-16T01:31:14.022Z,92.88
2018-05-16T01:32:14.117Z,92.78
2018-05-16T01:33:14.226Z,92.59
2018-05-16T01:34:14.319Z,92.40
2018-05-16T01:35:14.424Z,92.30
2018-05-16T01:36:14.544Z,92.11
2018-05-16T01:37:14.640Z,92.88
2018-05-16T01:38:14.725Z,92.78
2018-05-16T01:39:14.863Z,92.40
2018-05-16T01:40:15.374Z,92.30
2018-05-16T01:41:15.114Z,92.59
2018-05-16T01:42:15.140Z,92.21
2018-05-16T01:43:15.248Z,91.92
2018-05-16T01:44:15.414Z,92.21
2018-05-16T01:45:15.399Z,91.83
2018-05-16T01:46:15.561Z,92.40
2018-05-16T01:47:15.648Z,92.59
2018-05-16T01:48:15.639Z,92.49
2018-05-16T01:49:15.736Z,92.21
2018-05-16T01:50:15.938Z,92.45
2018-05-16T01:51:16.014Z,93.31
2018-05-16T01:52:16.052Z,93.16
2018-05-16T01:53:16.180Z,93.26
2018-05-16T01:54:16.276Z,92.78
2018-05-16T01:55:16.430Z,93.35
2018-05-16T01:56:16.526Z,93.35
2018-05-16T01:57:16.625Z,92.30
2018-05-16T01:58:16.721Z,92.88
2018-05-16T01:59:16.821Z,92.59
2018-05-16T02:00:16.923Z,93.26
2018-05-16T02:01:17.018Z,93.16
2018-05-16T02:02:17.116Z,92.49
2018-05-16T02:03:17.213Z,92.88
2018-05-16T02:04:17.310Z,93.26
2018-05-16T02:05:17.430Z,93.26
2018-05-16T02:06:17.530Z,93.35
2018-05-16T02:07:17.628Z,92.88
2018-05-16T02:08:17.728Z,92.88
2018-05-16T02:09:17.826Z,92.59
2018-05-16T02:10:17.922Z,92.59
2018-05-16T02:11:18.021Z,92.88
2018-05-16T02:12:18.116Z,93.07
2018-05-16T02:13:18.215Z,93.35
2018-05-16T02:14:18.313Z,93.35
2018-05-16T02:15:18.410Z,93.45
2018-05-16T02:16:18.509Z,93.55
2018-05-16T02:17:18.629Z,93.02
2018-05-16T02:18:18.728Z,92.83
2018-05-16T02:19:18.810Z,93.31
2018-05-16T02:20:18.936Z,93.69
2018-05-16T02:21:19.036Z,93.69
2018-05-16T02:22:19.133Z,92.93
2018-05-16T02:23:19.276Z,93.40
2018-05-16T02:24:19.372Z,92.83
2018-05-16T02:25:19.470Z,93.60
2018-05-16T02:26:19.572Z,92.88
2018-05-16T02:27:19.665Z,92.78
2018-05-16T02:28:19.763Z,93.74
2018-05-16T02:29:19.862Z,93.35
2018-05-16T02:30:19.959Z,93.02
2018-05-16T02:31:20.054Z,93.26
2018-05-16T02:32:20.158Z,92.97
2018-05-16T02:33:20.250Z,92.30
2018-05-16T02:34:20.351Z,92.69
2018-05-16T02:35:20.449Z,92.88
2018-05-16T02:36:20.546Z,92.74
2018-05-16T02:37:20.651Z,92.97
2018-05-16T02:38:20.741Z,92.88
2018-05-16T02:39:20.839Z,93.07
2018-05-16T02:40:20.925Z,92.97
2018-05-16T02:41:21.039Z,92.59
2018-05-16T02:42:21.136Z,92.78
2018-05-16T02:43:21.231Z,92.78
2018-05-16T02:44:21.330Z,92.49
2018-05-16T02:45:21.428Z,92.49
2018-05-16T02:46:21.618Z,92.11
2018-05-16T02:47:21.621Z,92.21
2018-05-16T02:48:21.720Z,92.40
2018-05-16T02:49:21.815Z,92.69
2018-05-16T02:50:21.912Z,92.40
2018-05-16T02:51:22.011Z,92.69
2018-05-16T02:52:22.107Z,91.92
2018-05-16T02:53:22.213Z,91.83
2018-05-16T02:54:22.348Z,92.11
2018-05-16T02:55:22.411Z,92.02
2018-05-16T02:56:22.508Z,92.59
2018-05-16T02:57:22.604Z,91.88
2018-05-16T02:58:22.703Z,92.16
2018-05-16T02:59:22.799Z,93.21
2018-05-16T03:00:22.898Z,93.50
2018-05-16T03:01:22.997Z,94.22
2018-05-16T03:02:23.092Z,94.31
2018-05-16T03:03:23.191Z,95.84
2018-05-16T03:04:23.295Z,95.61
2018-05-16T03:05:23.383Z,96.08
2018-05-16T03:06:23.482Z,95.94
2018-05-16T03:07:23.570Z,97.08
2018-05-16T03:08:23.666Z,96.80
2018-05-16T03:09:23.766Z,96.80
2018-05-16T03:10:23.867Z,96.89
2018-05-16T03:11:23.964Z,96.99
2018-05-16T03:12:24.059Z,96.51
2018-05-16T03:13:24.143Z,96.32
2018-05-16T03:14:24.248Z,96.08
2018-05-16T03:15:24.337Z,95.70
2018-05-16T03:16:24.436Z,95.22
2018-05-16T03:17:24.536Z,95.41
2018-05-16T03:18:24.632Z,95.70
2018-05-16T03:19:24.728Z,95.41
2018-05-16T03:20:24.825Z,94.65
2018-05-16T03:21:24.925Z,95.03
2018-05-16T03:22:25.024Z,94.36
2018-05-16T03:23:25.123Z,94.36
2018-05-16T03:24:25.218Z,94.55
2018-05-16T03:25:25.315Z,94.26
2018-05-16T03:26:25.413Z,93.98
2018-05-16T03:27:25.499Z,94.46
2018-05-16T03:28:25.599Z,93.98
2018-05-16T03:29:25.699Z,93.79
2018-05-16T03:30:25.794Z,93.21
2018-05-16T03:31:25.899Z,92.35
2018-05-16T03:32:25.993Z,93.45
2018-05-16T03:33:26.087Z,93.65
2018-05-16T03:34:26.182Z,94.41
2018-05-16T03:35:26.279Z,94.98
2018-05-16T03:36:26.375Z,94.70
2018-05-16T03:37:26.478Z,94.98
2018-05-16T03:38:26.564Z,94.60
2018-05-16T03:39:26.660Z,94.79
2018-05-16T03:40:26.757Z,94.31
2018-05-16T03:41:26.855Z,94.41
2018-05-16T03:42:26.953Z,94.65
2018-05-16T03:43:27.048Z,95.22
2018-05-16T03:44:27.135Z,95.51
2018-05-16T03:45:27.217Z,96.08
2018-05-16T03:46:27.312Z,96.08
2018-05-16T03:47:27.415Z,96.75
2018-05-16T03:48:27.496Z,96.94
2018-05-16T03:49:27.636Z,97.52
2018-05-16T03:50:27.735Z,97.52
2018-05-16T03:51:27.832Z,96.84
2018-05-16T03:52:27.934Z,96.56
2018-05-16T03:53:28.034Z,96.84
2018-05-16T03:54:28.131Z,96.37
2018-05-16T03:55:28.226Z,96.08
2018-05-16T03:56:28.324Z,96.13
2018-05-16T03:57:28.418Z,95.84
2018-05-16T03:58:28.515Z,95.65
2018-05-16T03:59:28.657Z,95.56
2018-05-16T04:00:28.750Z,95.65
2018-05-16T04:01:28.844Z,94.98
2018-05-16T04:02:28.934Z,95.17
2018-05-16T04:03:29.058Z,95.17
2018-05-16T04:04:29.145Z,95.27
2018-05-16T04:05:29.302Z,94.55
2018-05-16T04:06:29.419Z,95.36
2018-05-16T04:07:29.519Z,95.27
2018-05-16T04:08:29.628Z,94.98
2018-05-16T04:09:29.928Z,95.36
2018-05-16T04:10:29.956Z,95.36
2018-05-16T04:11:29.915Z,95.17
2018-05-16T04:12:30.018Z,95.56
2018-05-16T04:13:30.148Z,95.07
2018-05-16T04:14:30.220Z,94.79
2018-05-16T04:15:30.333Z,94.98
2018-05-16T04:16:30.484Z,94.60
2018-05-16T04:17:30.492Z,94.84
2018-05-16T04:18:30.571Z,94.93
2018-05-16T04:19:30.673Z,94.36
2018-05-16T04:20:30.788Z,94.74
2018-05-16T04:21:31.053Z,94.26
2018-05-16T04:22:31.166Z,94.07
2018-05-16T04:23:31.118Z,93.98
2018-05-16T04:24:31.208Z,94.07
2018-05-16T04:25:31.303Z,93.60
2018-05-16T04:26:31.425Z,93.40
2018-05-16T04:27:31.536Z,93.21
2018-05-16T04:28:31.632Z,93.31
2018-05-16T04:29:31.812Z,92.35
2018-05-16T04:30:31.792Z,92.35
2018-05-16T04:31:31.891Z,92.45
2018-05-16T04:32:31.988Z,93.31
2018-05-16T04:33:32.096Z,92.54
2018-05-16T04:34:32.198Z,92.83
2018-05-16T04:35:32.310Z,93.02
2018-05-16T04:36:32.455Z,93.21
2018-05-16T04:37:32.556Z,93.02
2018-05-16T04:38:32.654Z,93.12
2018-05-16T04:39:32.739Z,93.60
2018-05-16T04:40:32.915Z,93.21
2018-05-16T04:41:32.899Z,93.12
2018-05-16T04:42:33.061Z,93.21
2018-05-16T04:43:33.093Z,93.36
2018-05-16T04:44:33.188Z,94.02
2018-05-16T04:45:33.308Z,95.07
2018-05-16T04:46:33.457Z,94.89
2018-05-16T04:47:33.489Z,94.98
2018-05-16T04:48:33.510Z,95.36
2018-05-16T04:49:33.592Z,95.07
2018-05-16T04:50:34.513Z,95.41
2018-05-16T04:51:33.857Z,95.03
2018-05-16T04:52:33.912Z,94.36
2018-05-16T04:53:34.131Z,94.17
2018-05-16T04:54:34.295Z,93.98
2018-05-16T04:55:34.033Z,94.46
2018-05-16T04:56:34.273Z,94.65
2018-05-16T04:57:34.253Z,94.07
2018-05-16T04:58:34.420Z,93.79
2018-05-16T04:59:34.424Z,93.12
2018-05-16T05:00:34.836Z,93.50
2018-05-16T05:01:34.587Z,93.40
2018-05-16T05:02:34.795Z,92.35
2018-05-16T05:03:34.985Z,92.45
2018-05-16T05:04:34.932Z,92.83
2018-05-16T05:05:34.915Z,92.21
2018-05-16T05:06:35.030Z,93.07
2018-05-16T05:07:34.984Z,93.07
2018-05-16T05:08:35.071Z,92.78
2018-05-16T05:09:35.223Z,93.35
2018-05-16T05:10:35.310Z,92.88
2018-05-16T05:11:35.397Z,92.78
2018-05-16T05:12:35.529Z,92.21
2018-05-16T05:13:35.610Z,92.49
2018-05-16T05:14:35.572Z,91.35
2018-05-16T05:15:35.649Z,91.39
2018-05-16T05:16:35.894Z,90.72
2018-05-16T05:17:35.892Z,90.34
2018-05-16T05:18:35.923Z,90.53
2018-05-16T05:19:35.973Z,89.86
2018-05-16T05:20:36.079Z,90.05
2018-05-16T05:21:36.182Z,90.48
2018-05-16T05:22:36.318Z,89.62
2018-05-16T05:23:36.430Z,89.14
2018-05-16T05:24:36.658Z,88.76
2018-05-16T05:25:36.822Z,88.66
2018-05-16T05:26:36.792Z,88.66
2018-05-16T05:27:37.044Z,88.37
2018-05-16T05:28:37.011Z,88.61
2018-05-16T05:29:37.584Z,87.99
2018-05-16T05:30:37.741Z,87.94
2018-05-16T05:31:37.378Z,87.99
2018-05-16T05:32:37.549Z,87.94
2018-05-16T05:33:37.611Z,88.09
2018-05-16T05:34:37.576Z,87.90
2018-05-16T05:35:37.710Z,87.74
2018-05-16T05:36:37.801Z,87.84
2018-05-16T05:37:37.884Z,87.74
2018-05-16T05:38:37.984Z,87.84
2018-05-16T05:39:38.095Z,87.94
2018-05-16T05:40:38.333Z,87.17
2018-05-16T05:41:38.321Z,86.74
2018-05-16T05:42:38.309Z,86.54
2018-05-16T05:43:38.392Z,83.65
2018-05-16T05:44:38.723Z,82.26
2018-05-16T05:45:38.592Z,81.82
2018-05-16T05:46:38.789Z,80.38
2018-05-16T05:47:38.742Z,78.65
2018-05-16T05:48:38.941Z,77.15
2018-05-16T05:49:39.028Z,74.60
2018-05-16T05:50:38.991Z,73.41
2018-05-16T05:51:39.104Z,73.08
2018-05-16T05:52:39.259Z,75.45
2018-05-16T05:53:39.387Z,76.06
2018-05-16T05:54:39.441Z,76.19
2018-05-16T05:55:39.534Z,76.42
2018-05-16T05:56:39.747Z,73.96
2018-05-16T05:57:39.775Z,71.75
2018-05-16T05:58:39.994Z,72.61
2018-05-16T05:59:39.985Z,73.44
2018-05-16T06:00:40.087Z,71.87
2018-05-16T06:01:40.196Z,72.33
2018-05-16T06:02:40.324Z,75.75
2018-05-16T06:03:40.420Z,79.16
2018-05-16T06:04:40.536Z,80.47
2018-05-16T06:05:40.620Z,81.90
2018-05-16T06:06:40.720Z,82.78
2018-05-16T06:07:40.799Z,85.75
2018-05-16T06:08:40.951Z,86.70
2018-05-16T06:09:41.060Z,86.22
2018-05-16T06:10:41.143Z,86.32
2018-05-16T06:11:41.275Z,86.32
2018-05-16T06:12:41.388Z,86.41
2018-05-16T06:13:41.532Z,86.65
2018-05-16T06:14:41.504Z,85.55
2018-05-16T06:15:41.783Z,86.70
2018-05-16T06:16:41.722Z,87.62
2018-05-16T06:17:41.807Z,88.29
2018-05-16T06:18:41.905Z,89.34
2018-05-16T06:19:42.178Z,89.53
2018-05-16T06:20:42.051Z,89.38
2018-05-16T06:21:42.161Z,88.23
2018-05-16T06:22:42.272Z,87.27
2018-05-16T06:23:42.444Z,87.66
2018-05-16T06:24:42.434Z,86.17
2018-05-16T06:25:42.709Z,86.17
2018-05-16T06:26:42.840Z,85.12
2018-05-16T06:27:42.903Z,85.69
2018-05-16T06:28:42.992Z,86.12
2018-05-16T06:29:42.933Z,86.02
2018-05-16T06:30:43.114Z,84.88
2018-05-16T06:31:43.107Z,84.30
2018-05-16T06:32:43.291Z,84.25
2018-05-16T06:33:43.313Z,84.25
2018-05-16T06:34:43.500Z,84.77
2018-05-16T06:35:43.536Z,82.65
2018-05-16T06:36:43.504Z,82.37
2018-05-16T06:37:43.667Z,81.22
2018-05-16T06:38:43.769Z,81.70
2018-05-16T06:39:44.052Z,81.45
2018-05-16T06:40:43.921Z,81.07
2018-05-16T06:41:44.018Z,80.78
2018-05-16T06:42:44.173Z,81.07
2018-05-16T06:43:44.271Z,81.16
2018-05-16T06:44:44.377Z,80.40
2018-05-16T06:45:44.468Z,78.86
2018-05-16T06:46:44.618Z,78.03
2018-05-16T06:47:44.639Z,77.80
2018-05-16T06:48:44.740Z,79.83
2018-05-16T06:49:44.852Z,80.41
2018-05-16T06:50:45.057Z,80.51
2018-05-16T06:51:45.048Z,81.13
2018-05-16T06:52:45.143Z,82.86
2018-05-16T06:53:45.235Z,83.82
2018-05-16T06:54:45.333Z,83.19
2018-05-16T06:55:45.420Z,82.86
2018-05-16T06:56:45.534Z,82.09
2018-05-16T06:57:45.662Z,83.09
2018-05-16T06:58:45.760Z,83.76
2018-05-16T06:59:45.866Z,83.81
2018-05-16T07:00:45.949Z,83.14
2018-05-16T07:01:46.090Z,82.75
2018-05-16T07:02:46.162Z,81.22
2018-05-16T07:03:46.274Z,81.51
2018-05-16T07:04:46.371Z,80.30
2018-05-16T07:05:46.471Z,80.11
2018-05-16T07:06:46.599Z,80.01
2018-05-16T07:07:46.706Z,80.11
2018-05-16T07:08:46.842Z,79.14
2018-05-16T07:09:46.973Z,78.99
2018-05-16T07:10:47.087Z,77.36
2018-05-16T07:11:47.173Z,77.17
2018-05-16T07:12:47.267Z,77.09
2018-05-16T07:13:47.364Z,79.11
2018-05-16T07:14:47.517Z,80.64
2018-05-16T07:15:47.616Z,81.60
2018-05-16T07:16:47.732Z,81.98
2018-05-16T07:17:47.848Z,81.12
2018-05-16T07:18:47.950Z,79.91
2018-05-16T07:19:48.088Z,79.53
2018-05-16T07:20:48.198Z,78.67
2018-05-16T07:21:48.296Z,79.24
2018-05-16T07:22:48.496Z,78.19
2018-05-16T07:23:48.553Z,77.90
2018-05-16T07:24:48.687Z,79.96
2018-05-16T07:25:48.790Z,78.61
2018-05-16T07:26:48.883Z,77.84
2018-05-16T07:27:48.990Z,78.77
2018-05-16T07:28:49.088Z,78.96
2018-05-16T07:29:49.191Z,78.86
2018-05-16T07:30:49.289Z,79.05
2018-05-16T07:31:49.418Z,78.63
2018-05-16T07:32:49.522Z,78.44
2018-05-16T07:33:49.622Z,80.20
2018-05-16T07:34:49.752Z,78.67
2018-05-16T07:35:49.853Z,76.62
2018-05-16T07:36:49.955Z,77.19
2018-05-16T07:37:50.268Z,77.48
2018-05-16T07:38:50.280Z,78.96
2018-05-16T07:39:50.318Z,78.96
2018-05-16T07:40:50.420Z,76.46
2018-05-16T07:41:50.524Z,75.92
2018-05-16T07:42:50.614Z,75.73
2018-05-16T07:43:50.721Z,75.92
2018-05-16T07:44:50.821Z,76.79
2018-05-16T07:45:50.909Z,75.29
2018-05-16T07:46:51.024Z,74.77
2018-05-16T07:47:51.123Z,74.39
2018-05-16T07:48:51.223Z,74.52
2018-05-16T07:49:51.324Z,74.19
2018-05-16T07:50:51.422Z,75.60
2018-05-16T07:51:51.524Z,76.65
2018-05-16T07:52:51.613Z,76.50
2018-05-16T07:53:51.713Z,77.01
2018-05-16T07:54:51.811Z,76.34
2018-05-16T07:55:51.915Z,75.29
2018-05-16T07:56:52.008Z,74.23
2018-05-16T07:57:52.115Z,73.11
2018-05-16T07:58:52.212Z,74.55
2018-05-16T07:59:52.311Z,74.55
2018-05-16T08:00:52.409Z,73.31
2018-05-16T08:01:52.510Z,71.48
2018-05-16T08:02:52.615Z,71.81
2018-05-16T08:03:52.712Z,72.29
2018-05-16T08:04:52.813Z,72.58
2018-05-16T08:05:52.913Z,72.32
2018-05-16T08:06:53.017Z,71.42
2018-05-16T08:07:53.117Z,71.04
2018-05-16T08:08:53.216Z,70.40
2018-05-16T08:09:53.318Z,70.50
2018-05-16T08:10:53.419Z,71.26
2018-05-16T08:11:53.520Z,70.40
2018-05-16T08:12:53.622Z,70.88
2018-05-16T08:13:53.724Z,70.53
2018-05-16T08:14:53.824Z,68.60
2018-05-16T08:15:53.929Z,69.44
2018-05-16T08:16:54.026Z,69.31
2018-05-16T08:17:54.127Z,69.37
2018-05-16T08:18:54.226Z,71.93
2018-05-16T08:19:54.328Z,73.18
2018-05-16T08:20:54.428Z,74.94
2018-05-16T08:21:54.592Z,74.46
2018-05-16T08:22:54.617Z,73.15
2018-05-16T08:23:54.718Z,71.26
2018-05-16T08:24:54.818Z,71.08
2018-05-16T08:25:54.921Z,69.47
2018-05-16T08:26:55.032Z,69.67
2018-05-16T08:27:55.135Z,67.07
2018-05-16T08:28:55.241Z,68.51
2018-05-16T08:29:55.337Z,66.84
2018-05-16T08:30:55.440Z,68.83
2018-05-16T08:31:55.542Z,70.07
2018-05-16T08:32:55.645Z,70.65
2018-05-16T08:33:55.745Z,70.84
2018-05-16T08:34:55.849Z,70.46
2018-05-16T08:35:55.950Z,68.98
2018-05-16T08:36:56.053Z,69.85
2018-05-16T08:37:56.156Z,70.81
2018-05-16T08:38:56.258Z,71.67
2018-05-16T08:39:56.361Z,71.39
2018-05-16T08:40:56.461Z,72.06
2018-05-16T08:41:56.564Z,71.10
2018-05-16T08:42:56.708Z,70.52
2018-05-16T08:43:56.769Z,70.56
2018-05-16T08:44:56.872Z,71.81
2018-05-16T08:45:56.973Z,71.08
2018-05-16T08:46:57.074Z,70.30
2018-05-16T08:47:57.175Z,68.80
2018-05-16T08:48:57.282Z,68.64
2018-05-16T08:49:57.377Z,68.44
2018-05-16T08:50:57.479Z,67.13
2018-05-16T08:51:57.579Z,65.98
2018-05-16T08:52:57.685Z,65.20
2018-05-16T08:53:57.784Z,66.52
2018-05-16T08:54:57.889Z,64.98
2018-05-16T08:55:57.991Z,63.73
2018-05-16T08:56:58.092Z,64.59
2018-05-16T08:57:58.270Z,65.53
2018-05-16T08:58:58.249Z,69.27
2018-05-16T08:59:58.349Z,70.52
2018-05-16T09:00:58.452Z,71.67
2018-05-16T09:01:58.549Z,71.77
2018-05-16T09:02:58.653Z,71.87
2018-05-16T09:03:58.832Z,72.58
2018-05-16T09:04:58.807Z,71.65
2018-05-16T09:05:58.910Z,69.79
2018-05-16T09:06:59.012Z,70.65
2018-05-16T09:07:59.115Z,70.84
2018-05-16T09:08:59.216Z,68.73
2018-05-16T09:09:59.325Z,69.63
2018-05-16T09:10:59.422Z,66.36
2018-05-16T09:11:59.524Z,66.49
2018-05-16T09:12:59.627Z,66.58
2018-05-16T09:13:59.729Z,64.86
2018-05-16T09:14:59.831Z,64.50
2018-05-16T09:15:59.934Z,65.17
2018-05-16T09:17:00.035Z,65.69
2018-05-16T09:18:00.137Z,65.50
2018-05-16T09:19:00.240Z,66.17
2018-05-16T09:20:00.337Z,65.30
2018-05-16T09:21:00.438Z,65.50
2018-05-16T09:22:00.599Z,65.88
2018-05-16T09:23:00.641Z,66.55
2018-05-16T09:24:00.742Z,66.84
2018-05-16T09:25:00.845Z,66.84
2018-05-16T09:26:00.948Z,67.00
2018-05-16T09:27:01.051Z,68.79
2018-05-16T09:28:01.153Z,69.79
2018-05-16T09:29:01.257Z,69.02
2018-05-16T09:30:01.355Z,66.94
2018-05-16T09:31:01.455Z,65.50
2018-05-16T09:32:01.558Z,64.95
2018-05-16T09:33:01.661Z,64.47
2018-05-16T09:34:01.773Z,63.31
2018-05-16T09:35:01.872Z,64.40
2018-05-16T09:36:01.968Z,61.80
2018-05-16T09:37:02.058Z,62.29
2018-05-16T09:38:02.165Z,62.32
2018-05-16T09:39:02.271Z,62.99
2018-05-16T09:40:02.381Z,60.58
2018-05-16T09:41:02.499Z,61.07
2018-05-16T09:42:02.604Z,61.35
2018-05-16T09:43:02.698Z,60.27
2018-05-16T09:44:02.811Z,61.93
2018-05-16T09:45:02.954Z,61.74
2018-05-16T09:46:03.125Z,61.74
2018-05-16T09:47:03.170Z,60.39
2018-05-16T09:48:03.260Z,62.06
2018-05-16T09:49:03.344Z,62.45
2018-05-16T09:50:03.475Z,61.77
2018-05-16T09:51:03.574Z,60.52
2018-05-16T09:52:03.738Z,61.00
2018-05-16T09:53:03.799Z,60.13
2018-05-16T09:54:03.895Z,60.52
2018-05-16T09:55:03.993Z,60.32
2018-05-16T09:56:04.086Z,60.45
2018-05-16T09:57:04.272Z,60.06
2018-05-16T09:58:04.325Z,59.72
2018-05-16T09:59:04.491Z,62.09
2018-05-16T10:00:04.520Z,63.44
2018-05-16T10:01:04.856Z,63.54
2018-05-16T10:02:04.756Z,63.64
2018-05-16T10:03:04.763Z,63.18
2018-05-16T10:04:04.946Z,62.22
2018-05-16T10:05:05.040Z,61.10
2018-05-16T10:06:05.093Z,63.12
2018-05-16T10:07:05.236Z,61.68
2018-05-16T10:08:05.286Z,62.29
2018-05-16T10:09:05.429Z,63.54
2018-05-16T10:10:05.888Z,63.06
2018-05-16T10:11:06.298Z,64.63
2018-05-16T10:12:05.816Z,62.12
2018-05-16T10:13:06.015Z,60.87
2018-05-16T10:14:05.990Z,61.93
2018-05-16T10:15:06.867Z,60.30
2018-05-16T10:16:06.213Z,61.35
2018-05-16T10:17:06.346Z,60.87
2018-05-16T10:18:06.428Z,61.07
2018-05-16T10:19:06.669Z,60.58
2018-05-16T10:20:06.725Z,60.42
2018-05-16T10:21:06.798Z,60.55
2018-05-16T10:22:06.841Z,61.03
2018-05-16T10:23:07.053Z,62.12
2018-05-16T10:24:07.087Z,59.61
2018-05-16T10:25:07.219Z,57.29
2018-05-16T10:26:07.344Z,57.49
2018-05-16T10:27:07.455Z,58.81
2018-05-16T10:28:07.564Z,59.52
2018-05-16T10:29:07.756Z,59.52
2018-05-16T10:30:08.379Z,59.90
2018-05-16T10:31:07.852Z,60.97
2018-05-16T10:32:08.621Z,62.41
2018-05-16T10:33:08.120Z,62.67
2018-05-16T10:34:08.312Z,64.37
2018-05-16T10:35:08.510Z,65.50
2018-05-16T10:36:08.432Z,66.14
2018-05-16T10:37:08.533Z,66.46
2018-05-16T10:38:08.697Z,66.46
2018-05-16T10:39:08.800Z,67.35
2018-05-16T10:40:08.905Z,66.30
2018-05-16T10:41:09.106Z,64.95
2018-05-16T10:42:09.111Z,64.79
2018-05-16T10:43:09.311Z,65.08
2018-05-16T10:44:09.419Z,63.38
2018-05-16T10:45:09.701Z,62.25
2018-05-16T10:46:09.812Z,62.35
2018-05-16T10:47:09.863Z,61.80
2018-05-16T10:48:09.844Z,61.74
2018-05-16T10:49:10.685Z,61.90
2018-05-16T10:50:10.010Z,62.03
2018-05-16T10:51:10.127Z,63.47
2018-05-16T10:52:10.246Z,61.55
2018-05-16T10:53:10.311Z,60.20
2018-05-16T10:54:10.408Z,61.83
2018-05-16T10:55:10.517Z,60.32
2018-05-16T10:56:10.628Z,60.45
2018-05-16T10:57:10.721Z,60.26
2018-05-16T10:58:10.829Z,61.03
2018-05-16T10:59:10.920Z,58.65
2018-05-16T11:00:11.014Z,58.14
2018-05-16T11:01:11.113Z,58.40
2018-05-16T11:02:11.243Z,59.65
2018-05-16T11:03:11.352Z,60.74
2018-05-16T11:04:11.452Z,61.99
2018-05-16T11:05:11.549Z,60.83
2018-05-16T11:06:11.653Z,60.16
2018-05-16T11:07:11.759Z,57.17
2018-05-16T11:08:11.862Z,58.55
2018-05-16T11:09:12.009Z,59.13
2018-05-16T11:10:12.129Z,58.48
2018-05-16T11:11:12.241Z,57.71
2018-05-16T11:12:12.398Z,56.69
2018-05-16T11:13:12.547Z,56.81
2018-05-16T11:14:12.682Z,56.62
2018-05-16T11:15:12.789Z,56.04
2018-05-16T11:16:12.891Z,56.91
2018-05-16T11:17:12.991Z,56.74
2018-05-16T11:18:13.113Z,54.62
2018-05-16T11:19:13.249Z,53.27
2018-05-16T11:20:13.367Z,54.07
2018-05-16T11:21:13.495Z,53.83
2018-05-16T11:22:13.591Z,55.82
2018-05-16T11:23:13.742Z,58.20
2018-05-16T11:24:13.840Z,59.81
2018-05-16T11:25:13.938Z,59.97
2018-05-16T11:26:14.078Z,61.22
2018-05-16T11:27:14.195Z,62.29
2018-05-16T11:28:14.296Z,62.41
2018-05-16T11:29:14.434Z,60.55
2018-05-16T11:30:14.533Z,62.09
2018-05-16T11:31:14.659Z,62.12
2018-05-16T11:32:14.761Z,61.16
2018-05-16T11:33:14.857Z,59.88
2018-05-16T11:34:14.961Z,60.65
2018-05-16T11:35:15.063Z,60.58
2018-05-16T11:36:15.167Z,60.49
2018-05-16T11:37:15.255Z,59.84
2018-05-16T11:38:15.354Z,59.17
2018-05-16T11:39:15.498Z,58.81
2018-05-16T11:40:15.588Z,58.52
2018-05-16T11:41:15.676Z,57.27
2018-05-16T11:42:15.765Z,57.24
2018-05-16T11:43:15.929Z,57.82
2018-05-16T11:44:16.179Z,58.97
2018-05-16T11:45:16.181Z,57.92
2018-05-16T11:46:16.303Z,58.33
2018-05-16T11:47:16.410Z,57.89
2018-05-16T11:48:16.519Z,59.88
2018-05-16T11:49:16.633Z,61.61
2018-05-16T11:50:16.725Z,63.06
2018-05-16T11:51:16.827Z,63.92
2018-05-16T11:52:16.948Z,64.28
2018-05-16T11:53:17.040Z,65.24
2018-05-16T11:54:17.153Z,65.53
2018-05-16T11:55:17.258Z,65.94
2018-05-16T11:56:17.369Z,65.56
2018-05-16T11:57:17.462Z,64.50
2018-05-16T11:58:17.565Z,64.12
2018-05-16T11:59:17.756Z,64.82
2018-05-16T12:00:17.780Z,63.89
2018-05-16T12:01:17.883Z,63.41
2018-05-16T12:02:17.985Z,62.09
2018-05-16T12:03:18.091Z,61.80
2018-05-16T12:04:18.290Z,61.16
2018-05-16T12:05:18.254Z,60.48
2018-05-16T12:06:18.377Z,59.58
2018-05-16T12:07:18.475Z,59.78
2018-05-16T12:08:18.574Z,59.90
2018-05-16T12:09:18.790Z,60.38
2018-05-16T12:10:18.816Z,59.61
2018-05-16T12:11:18.921Z,60.10
2018-05-16T12:12:19.072Z,59.71
2018-05-16T12:13:19.204Z,58.87
2018-05-16T12:14:19.310Z,58.81
2018-05-16T12:15:19.409Z,59.97
2018-05-16T12:16:19.511Z,59.78
2018-05-16T12:17:19.613Z,58.62
2018-05-16T12:18:19.719Z,61.55
2018-05-16T12:19:19.822Z,63.15
2018-05-16T12:20:19.929Z,64.86
2018-05-16T12:21:20.036Z,66.01
2018-05-16T12:22:20.128Z,66.49
2018-05-16T12:23:20.232Z,66.49
2018-05-16T12:24:20.333Z,64.95
2018-05-16T12:25:20.438Z,65.59
2018-05-16T12:26:20.543Z,67.13
2018-05-16T12:27:20.645Z,67.03
2018-05-16T12:28:20.750Z,66.49
2018-05-16T12:29:20.860Z,68.19
2018-05-16T12:30:20.955Z,70.40
2018-05-16T12:31:21.061Z,71.75
2018-05-16T12:32:21.163Z,73.09
2018-05-16T12:33:21.269Z,72.45
2018-05-16T12:34:21.377Z,73.03
2018-05-16T12:35:21.474Z,73.22
2018-05-16T12:36:21.582Z,72.80
2018-05-16T12:37:21.685Z,75.02
2018-05-16T12:38:21.793Z,76.11
2018-05-16T12:39:21.893Z,76.50
2018-05-16T12:40:21.996Z,76.11
2018-05-16T12:41:22.101Z,75.38
2018-05-16T12:42:22.204Z,74.71
2018-05-16T12:43:22.306Z,73.46
2018-05-16T12:44:22.414Z,74.16
2018-05-16T12:45:22.515Z,73.10
2018-05-16T12:46:22.618Z,73.30
2018-05-16T12:47:22.727Z,74.26
2018-05-16T12:48:22.829Z,73.78
2018-05-16T12:49:22.941Z,72.63
2018-05-16T12:50:23.040Z,72.72
2018-05-16T12:51:23.147Z,71.76
2018-05-16T12:52:23.252Z,73.88
2018-05-16T12:53:23.353Z,73.36